Time,TemperatureC,DewpointC,PressurehPa,WindDirection,WindDirectionDegrees,WindSpeedKMH,WindSpeedGustKMH,Humidity,HourlyPrecipMM,Conditions,Clouds,dailyrainMM,SolarRadiationWatts/m^2,UVIndex,SoftwareType,DateUTC
2026-09-05 00:04:57,6.8,2.1,1004.7,WNW,296,0.1,1.9,72.4,0.0,,,0.0,0,0,n/a,2026-09-04T12:04:57Z
2026-09-05 00:09:59,6.7,2.3,1004.7,WNW,296,0.5,3.7,73.6,0.0,,,0.0,0,0,n/a,2026-09-04T12:09:59Z
2026-09-05 00:14:57,6.6,2.3,1004.7,WNW,296,0.9,3.7,74,0.0,,,0.0,0,0,n/a,2026-09-04T12:14:57Z
2026-09-05 00:19:55,6.5,2.2,1004.8,WNW,296,0.3,3.7,74.2,0.0,,,0.0,0,0,n/a,2026-09-04T12:19:55Z
2026-09-05 00:24:55,6.4,2.2,1004.9,WNW,296,0,1.9,74.6,0.0,,,0.0,0,0,n/a,2026-09-04T12:24:55Z
2026-09-05 00:29:57,6.3,2.2,1005.0,WNW,296,0.1,1.9,75,0.0,,,0.0,0,0,n/a,2026-09-04T12:29:57Z
2026-09-05 00:34:57,6.2,2.1,1005.0,WNW,296,0.2,1.9,75,0.0,,,0.0,0,0,n/a,2026-09-04T12:34:57Z
2026-09-05 00:39:59,6.3,2.3,1005.0,WNW,296,1,3.7,75.9,0.0,,,0.0,0,0,n/a,2026-09-04T12:39:59Z
2026-09-05 00:44:58,6.3,2.5,1005.2,WNW,296,1.5,4.8,76.6,0.0,,,0.0,0,0,n/a,2026-09-04T12:44:58Z
2026-09-05 00:49:59,6.4,2.7,1005.2,WNW,296,2.3,5.6,77,0.0,,,0.0,0,0,n/a,2026-09-04T12:49:59Z
2026-09-05 00:54:59,6.8,2.9,1005.2,WNW,288,3.7,9.7,75.8,0.0,,,0.0,0,0,n/a,2026-09-04T12:54:59Z
2026-09-05 00:59:54,7.2,2.9,1005.4,West,281,3.6,6.4,74.2,0.0,,,0.0,0,0,n/a,2026-09-04T12:59:54Z
2026-09-05 01:04:59,7.5,2.8,1005.5,West,281,2.1,6.4,72.3,0.0,,,0.0,0,0,n/a,2026-09-04T13:04:59Z
2026-09-05 01:09:59,7.6,2.6,1005.7,West,281,0,1.9,71,0.0,,,0.0,0,0,n/a,2026-09-04T13:09:59Z
2026-09-05 01:14:54,7.6,2.6,1005.7,West,281,0.7,3.2,71,0.0,,,0.0,0,0,n/a,2026-09-04T13:14:54Z
2026-09-05 01:19:54,7.5,2.9,1005.8,West,281,1.9,3.7,72.6,0.0,,,0.0,0,0,n/a,2026-09-04T13:19:54Z
2026-09-05 01:24:58,7.3,2.7,1005.9,West,270,2.3,5.6,72.2,0.0,,,0.0,0,0,n/a,2026-09-04T13:24:58Z
2026-09-05 01:29:57,7.1,2.5,1006.0,West,265,1.8,5.6,72.4,0.0,,,0.0,0,0,n/a,2026-09-04T13:29:57Z
2026-09-05 01:34:56,6.9,2.4,1006.2,West,265,1.5,3.7,73,0.0,,,0.0,0,0,n/a,2026-09-04T13:34:56Z
2026-09-05 01:39:58,6.6,2.2,1006.3,West,265,1.2,3.7,73.5,0.0,,,0.0,0,0,n/a,2026-09-04T13:39:58Z
2026-09-05 01:44:58,6.4,2.3,1006.4,West,265,0.1,1.9,74.9,0.0,,,0.0,0,0,n/a,2026-09-04T13:44:58Z
2026-09-05 01:49:59,6.3,2.2,1006.5,West,265,0.4,1.9,75,0.0,,,0.0,0,0,n/a,2026-09-04T13:49:59Z
2026-09-05 01:54:59,6.2,2.2,1006.5,West,265,1.1,3.7,75.6,0.0,,,0.0,0,0,n/a,2026-09-04T13:54:59Z
2026-09-05 01:59:58,6.1,2.2,1006.6,West,265,0,0,76,0.0,,,0.0,0,0,n/a,2026-09-04T13:59:58Z
2026-09-05 02:04:55,5.9,2.1,1006.8,West,265,0,0,76.6,0.0,,,0.0,0,0,n/a,2026-09-04T14:04:55Z
2026-09-05 02:09:59,5.8,2.1,1006.8,West,265,0,0,77,0.0,,,0.0,0,0,n/a,2026-09-04T14:09:59Z
2026-09-05 02:14:59,5.6,1.9,1006.8,West,265,0.3,1.9,77,0.0,,,0.0,0,0,n/a,2026-09-04T14:14:59Z
2026-09-05 02:19:58,5.5,1.8,1006.8,West,265,0.7,1.9,77.2,0.0,,,0.0,0,0,n/a,2026-09-04T14:19:58Z
2026-09-05 02:24:58,5.3,1.8,1006.8,West,265,0,1.9,78,0.0,,,0.0,0,0,n/a,2026-09-04T14:24:58Z
2026-09-05 02:29:55,5.1,1.6,1006.9,West,265,0,0,78,0.0,,,0.0,0,0,n/a,2026-09-04T14:29:55Z
2026-09-05 02:34:58,4.9,1.4,1007.0,West,265,1.2,3.7,78,0.0,,,0.0,0,0,n/a,2026-09-04T14:34:58Z
2026-09-05 02:39:57,4.8,1.4,1007.0,West,265,0.6,3.7,78.9,0.0,,,0.0,0,0,n/a,2026-09-04T14:39:57Z
2026-09-05 02:44:56,4.7,1.3,1007.0,West,265,0.1,1.9,79,0.0,,,0.0,0,0,n/a,2026-09-04T14:44:56Z
2026-09-05 02:49:54,4.6,1.4,1007.0,West,265,0,0,80,0.0,,,0.0,0,0,n/a,2026-09-04T14:49:54Z
2026-09-05 02:54:58,4.5,1.4,1007.0,West,265,0,0,80,0.0,,,0.0,0,0,n/a,2026-09-04T14:54:58Z
2026-09-05 02:59:56,4.4,1.3,1007.1,West,265,0,0,80,0.0,,,0.0,0,0,n/a,2026-09-04T14:59:56Z
2026-09-05 03:04:55,4.3,1.1,1007.1,West,265,0,0,80,0.0,,,0.0,0,0,n/a,2026-09-04T15:04:55Z
2026-09-05 03:09:55,4.2,1.1,1007.1,West,265,0,0,80,0.0,,,0.0,0,0,n/a,2026-09-04T15:09:55Z
2026-09-05 03:14:57,4.2,1,1007.1,West,265,0.7,5.6,80.2,0.0,,,0.0,0,0,n/a,2026-09-04T15:14:57Z
2026-09-05 03:19:59,4.1,1.1,1007.0,West,265,1.2,3.7,81,0.0,,,0.0,0,0,n/a,2026-09-04T15:19:59Z
2026-09-05 03:24:58,4.1,1.3,1007.0,West,265,0.1,1.9,82.2,0.0,,,0.0,0,0,n/a,2026-09-04T15:24:58Z
2026-09-05 03:29:58,4,1.3,1007.0,West,265,0.6,3.7,82.3,0.0,,,0.0,0,0,n/a,2026-09-04T15:29:58Z
2026-09-05 03:34:58,3.9,1.3,1007.0,West,265,0.4,1.9,83,0.0,,,0.0,0,0,n/a,2026-09-04T15:34:58Z
2026-09-05 03:39:57,3.9,1.2,1007.1,West,265,0.1,3.7,83,0.0,,,0.0,0,0,n/a,2026-09-04T15:39:57Z
2026-09-05 03:44:56,3.8,1.2,1007.1,West,265,0.3,1.9,83,0.0,,,0.0,0,0,n/a,2026-09-04T15:44:56Z
2026-09-05 03:49:56,3.7,1.2,1007.1,West,265,0.2,1.9,83.6,0.0,,,0.0,0,0,n/a,2026-09-04T15:49:56Z
2026-09-05 03:54:56,3.7,1.2,1007.2,West,265,0,1.9,84,0.0,,,0.0,0,0,n/a,2026-09-04T15:54:56Z
2026-09-05 03:59:56,3.6,1.2,1007.4,West,265,1.3,5.6,84,0.0,,,0.0,0,0,n/a,2026-09-04T15:59:56Z
2026-09-05 04:04:55,3.7,1.4,1007.6,South,184,3.5,6.4,84.6,0.0,,,0.0,0,0,n/a,2026-09-04T16:04:55Z
2026-09-05 04:09:54,3.8,1.5,1007.7,SE,143,1.6,5.6,85,0.0,,,0.0,0,0,n/a,2026-09-04T16:09:54Z
2026-09-05 04:14:59,3.8,1.6,1007.6,SE,143,0.9,3.7,85.3,0.0,,,0.0,0,0,n/a,2026-09-04T16:14:59Z
2026-09-05 04:19:55,3.9,1.8,1007.6,SE,143,0,1.9,86,0.0,,,0.0,0,0,n/a,2026-09-04T16:19:55Z
2026-09-05 04:24:54,4,1.9,1007.6,SE,143,0.3,1.9,86,0.0,,,0.0,0,0,n/a,2026-09-04T16:24:54Z
2026-09-05 04:29:54,4,1.7,1007.5,SE,145,0.1,1.9,85,0.0,,,0.0,0,0,n/a,2026-09-04T16:29:54Z
2026-09-05 04:34:58,3.9,1.7,1007.4,SE,145,0.6,3.7,85,0.0,,,0.0,0,0,n/a,2026-09-04T16:34:58Z
2026-09-05 04:39:54,3.9,1.8,1007.5,SE,146,0.3,1.9,86,0.0,,,0.0,0,0,n/a,2026-09-04T16:39:54Z
2026-09-05 04:44:59,3.9,1.8,1007.7,SE,146,2,3.7,86,0.0,,,0.0,0,0,n/a,2026-09-04T16:44:59Z
2026-09-05 04:49:59,4,1.9,1007.8,SE,146,0.5,3.7,86,0.0,,,0.0,0,0,n/a,2026-09-04T16:49:59Z
2026-09-05 04:54:58,4,1.9,1007.7,SE,146,0,1.9,86,0.0,,,0.0,0,0,n/a,2026-09-04T16:54:58Z
2026-09-05 04:59:58,3.9,1.8,1007.9,SE,146,0,0,86,0.0,,,0.0,0,0,n/a,2026-09-04T16:59:58Z
2026-09-05 05:04:59,3.8,1.7,1007.9,SE,146,0,0,86,0.0,,,0.0,0,0,n/a,2026-09-04T17:04:59Z
2026-09-05 05:09:57,3.8,1.7,1007.9,SE,146,0,0,86,0.0,,,0.0,0,0,n/a,2026-09-04T17:09:57Z
2026-09-05 05:14:56,3.7,1.6,1007.8,SE,146,0,0,86,0.0,,,0.0,0,0,n/a,2026-09-04T17:14:56Z
2026-09-05 05:19:56,3.7,1.6,1007.8,SE,146,0,1.9,86,0.0,,,0.0,0,0,n/a,2026-09-04T17:19:56Z
2026-09-05 05:24:57,3.7,1.6,1007.8,SE,146,0.2,1.9,86,0.0,,,0.0,0,0,n/a,2026-09-04T17:24:57Z
2026-09-05 05:29:56,3.6,1.5,1007.8,SE,146,0.5,3.7,86,0.0,,,0.0,0,0,n/a,2026-09-04T17:29:56Z
2026-09-05 05:34:57,3.5,1.4,1007.7,SE,146,0.1,1.9,86,0.0,,,0.0,0,0,n/a,2026-09-04T17:34:57Z
2026-09-05 05:39:54,3.4,1.3,1007.6,SE,146,0,0,86,0.0,,,0.0,0,0,n/a,2026-09-04T17:39:54Z
2026-09-05 05:44:54,3.3,1.3,1007.6,SE,146,0.5,1.9,86.5,0.0,,,0.0,0,0,n/a,2026-09-04T17:44:54Z
2026-09-05 05:49:54,3.3,1.4,1007.6,SE,146,1.6,3.7,87,0.0,,,0.0,0,0,n/a,2026-09-04T17:49:54Z
2026-09-05 05:54:55,3.3,1.4,1007.6,SE,146,1.8,3.7,87,0.0,,,0.0,0,0,n/a,2026-09-04T17:54:55Z
2026-09-05 05:59:54,3.4,1.4,1007.7,SE,146,2.2,3.7,87,0.0,,,0.0,0,0,n/a,2026-09-04T17:59:54Z
2026-09-05 06:04:55,3.5,1.6,1007.6,SE,146,2.1,3.7,87.2,0.0,,,0.0,0,0,n/a,2026-09-04T18:04:55Z
2026-09-05 06:09:57,3.6,1.8,1007.5,SE,146,1.5,3.7,87.6,0.0,,,0.0,0,0,n/a,2026-09-04T18:09:57Z
2026-09-05 06:14:57,3.7,1.9,1007.5,SE,146,0.1,3.7,87.6,0.0,,,0.0,0,0,n/a,2026-09-04T18:14:57Z
2026-09-05 06:19:57,3.7,1.8,1007.5,SE,146,0,0,87,0.0,,,0.0,0,0,n/a,2026-09-04T18:19:57Z
2026-09-05 06:24:57,3.6,1.7,1007.5,SE,146,0,0,87,0.0,,,0.0,0,0,n/a,2026-09-04T18:24:57Z
2026-09-05 06:29:56,3.6,1.6,1007.4,SE,146,0,0,87,0.0,,,0.0,0,0,n/a,2026-09-04T18:29:56Z
2026-09-05 06:34:56,3.5,1.5,1007.4,SE,146,0.1,1.9,87,0.0,,,0.0,0,0,n/a,2026-09-04T18:34:56Z
2026-09-05 06:39:59,3.4,1.5,1007.5,SE,146,0.5,1.9,87,0.0,,,0.0,0,0,n/a,2026-09-04T18:39:59Z
2026-09-05 06:44:58,3.4,1.4,1007.4,SE,146,0,1.9,87,0.0,,,0.0,11,0,n/a,2026-09-04T18:44:58Z
2026-09-05 06:49:58,3.4,1.5,1007.3,SE,146,0.9,3.7,87.4,0.0,,,0.0,14,0,n/a,2026-09-04T18:49:58Z
2026-09-05 06:54:59,3.5,1.7,1007.4,SE,146,0,1.9,88,0.0,,,0.0,21,0,n/a,2026-09-04T18:54:59Z
2026-09-05 06:59:59,3.5,1.7,1007.4,SE,146,0.2,1.9,88,0.0,,,0.0,26,0,n/a,2026-09-04T18:59:59Z
2026-09-05 07:04:59,3.5,1.7,1007.5,SE,146,0,0,88,0.0,,,0.0,28,0,n/a,2026-09-04T19:04:59Z
2026-09-05 07:09:55,3.6,1.9,1007.5,SE,146,0,0,88,0.0,,,0.0,32,0,n/a,2026-09-04T19:09:55Z
2026-09-05 07:14:54,3.8,2.1,1007.5,SSE,147,0.6,5.6,88.9,0.0,,,0.0,44,0,n/a,2026-09-04T19:14:54Z
2026-09-05 07:19:54,4,2.4,1007.5,SSE,147,0,3.7,89,0.0,,,0.0,49,0,n/a,2026-09-04T19:19:54Z
2026-09-05 07:24:59,4.3,2.6,1007.5,SSE,147,0,0,89,0.0,,,0.0,62,0,n/a,2026-09-04T19:24:59Z
2026-09-05 07:29:54,4.6,3.1,1007.5,SSE,147,0,1.9,89.7,0.0,,,0.0,62,0,n/a,2026-09-04T19:29:54Z
2026-09-05 07:34:58,4.9,3.4,1007.4,SSE,147,0,0,89.5,0.0,,,0.0,40,0,n/a,2026-09-04T19:34:58Z
2026-09-05 07:39:54,5.1,3.5,1007.3,SSE,147,0,0,89,0.0,,,0.0,46,0,n/a,2026-09-04T19:39:54Z
2026-09-05 07:44:59,5.2,3.6,1007.3,SSE,147,0,0,89,0.0,,,0.0,37,0,n/a,2026-09-04T19:44:59Z
2026-09-05 07:49:58,5.3,3.6,1007.5,SSE,147,0,0,89,0.0,,,0.0,37,0,n/a,2026-09-04T19:49:58Z
2026-09-05 07:54:56,5.3,3.7,1007.5,SSE,147,0,0,89,0.0,,,0.0,32,0,n/a,2026-09-04T19:54:56Z
2026-09-05 07:59:56,5.3,3.6,1007.5,SSE,147,0,0,88.8,0.0,,,0.0,32,0,n/a,2026-09-04T19:59:56Z
2026-09-05 08:04:56,5.3,3.5,1007.5,SSE,147,0,0,88,0.0,,,0.0,32,0,n/a,2026-09-04T20:04:56Z
2026-09-05 08:09:59,5.4,3.5,1007.5,SSE,147,0,0,88,0.0,,,0.0,33,0,n/a,2026-09-04T20:09:59Z
2026-09-05 08:14:59,5.5,3.8,1007.6,SSE,147,0,0,89,0.0,,,0.0,35,0,n/a,2026-09-04T20:14:59Z
2026-09-05 08:19:58,5.5,3.7,1007.5,SSE,147,0,0,88.2,0.0,,,0.0,40,0,n/a,2026-09-04T20:19:58Z
2026-09-05 08:24:59,5.6,3.7,1007.5,SSE,147,0.3,1.9,88,0.0,,,0.0,42,0,n/a,2026-09-04T20:24:59Z
2026-09-05 08:29:58,5.6,3.8,1007.5,SSE,147,0.7,3.7,88,0.0,,,0.0,42,0,n/a,2026-09-04T20:29:58Z
2026-09-05 08:34:58,5.8,4.2,1007.5,SE,137,2.2,5.6,89,0.0,,,0.0,42,0,n/a,2026-09-04T20:34:58Z
2026-09-05 08:39:59,6,4.4,1007.5,SE,136,0.9,5.6,89,0.0,,,0.0,42,0,n/a,2026-09-04T20:39:59Z
2026-09-05 08:44:59,6.2,4.5,1007.5,SE,136,1,5.6,89,0.0,,,0.0,46,0,n/a,2026-09-04T20:44:59Z
2026-09-05 08:49:59,6.3,4.6,1007.3,NE,38,1.3,6.4,89,0.0,,,0.0,51,0,n/a,2026-09-04T20:49:59Z
2026-09-05 08:54:59,6.4,4.7,1007.3,WNW,288,1.4,6.4,88.6,0.0,,,0.0,56,0,n/a,2026-09-04T20:54:59Z
2026-09-05 08:59:58,6.5,4.7,1007.3,WNW,289,0.3,1.9,88,0.0,,,0.0,62,0,n/a,2026-09-04T20:59:58Z
2026-09-05 09:04:56,6.6,4.8,1007.3,WNW,289,0.5,3.7,88,0.0,,,0.0,62,0,n/a,2026-09-04T21:04:56Z
2026-09-05 09:09:58,6.8,4.8,1007.2,WNW,291,0.9,4.8,87.1,0.0,,,0.0,67,0,n/a,2026-09-04T21:09:58Z
2026-09-05 09:14:59,7,4.9,1007.2,WNW,286,1.6,5.6,86.7,0.0,,,0.0,79,0,n/a,2026-09-04T21:14:59Z
2026-09-05 09:19:58,7.2,4.9,1007.1,West,277,3.8,11.3,85.3,0.0,,,0.0,90,0,n/a,2026-09-04T21:19:58Z
2026-09-05 09:24:57,8,5.1,1007.2,WNW,283,8.2,24.1,82.1,0.0,,,0.0,98,0,n/a,2026-09-04T21:24:57Z
2026-09-05 09:29:56,9.4,5.3,1007.2,WNW,283,7.4,24.1,75.4,0.0,,,0.0,109,0.5,n/a,2026-09-04T21:29:56Z
2026-09-05 09:34:55,10.5,5,1007.1,WNW,283,6.4,13,68.6,0.0,,,0.0,116,0.5,n/a,2026-09-04T21:34:55Z
2026-09-05 09:39:56,11.3,4.4,1007.0,WNW,284,6.5,16.7,62.3,0.0,,,0.0,116,0.5,n/a,2026-09-04T21:39:56Z
2026-09-05 09:44:57,11.9,3.7,1006.8,WNW,288,8,16.7,57,0.0,,,0.0,120,0.5,n/a,2026-09-04T21:44:57Z
2026-09-05 09:49:56,12.5,3.5,1006.7,NW,306,6.8,14.8,54.3,0.0,,,0.0,123,0.6,n/a,2026-09-04T21:49:56Z
2026-09-05 09:54:56,12.8,3.4,1006.5,WNW,295,8.6,18.5,52.7,0.0,,,0.0,134,0.6,n/a,2026-09-04T21:54:56Z
2026-09-05 09:59:56,13,3.2,1006.4,WNW,286,12,25.9,51.2,0.0,,,0.0,148,0.7,n/a,2026-09-04T21:59:56Z
2026-09-05 10:04:56,13.3,3.2,1006.3,WNW,285,12.4,35.4,50.4,0.0,,,0.0,153,0.7,n/a,2026-09-04T22:04:56Z
2026-09-05 10:09:57,13.4,3,1006.5,WNW,286,12.9,27.8,49.2,0.0,,,0.0,167,0.8,n/a,2026-09-04T22:09:57Z
2026-09-05 10:14:56,13.6,2.8,1006.4,WNW,282,12,24.1,48,0.0,,,0.0,181,0.9,n/a,2026-09-04T22:14:56Z
2026-09-05 10:19:55,13.9,2.8,1006.3,WNW,282,12.7,22.5,47,0.0,,,0.0,202,1,n/a,2026-09-04T22:19:55Z
2026-09-05 10:24:59,14.1,2.8,1006.4,WNW,287,11.8,22.2,46.5,0.0,,,0.0,227,1.1,n/a,2026-09-04T22:24:59Z
2026-09-05 10:29:58,14.2,3.2,1006.4,WNW,297,7.8,19.3,47.6,0.0,,,0.0,279,1.3,n/a,2026-09-04T22:29:58Z
2026-09-05 10:34:58,14.3,3.3,1006.3,WNW,297,8.9,19.3,47.4,0.0,,,0.0,376,1.5,n/a,2026-09-04T22:34:58Z
2026-09-05 10:39:54,14.5,3.6,1006.3,WNW,302,10.1,18.5,47.9,0.0,,,0.0,381,1.5,n/a,2026-09-04T22:39:54Z
2026-09-05 10:44:58,14.5,3.9,1006.2,WNW,303,9.3,16.7,48.9,0.0,,,0.0,362,1.5,n/a,2026-09-04T22:44:58Z
2026-09-05 10:49:56,14.6,4.1,1006.2,WNW,303,9.6,17.7,49.5,0.0,,,0.0,559,1.8,n/a,2026-09-04T22:49:56Z
2026-09-05 10:54:54,14.7,4.4,1006.0,WNW,302,8.6,18.5,50.3,0.0,,,0.0,559,2,n/a,2026-09-04T22:54:54Z
2026-09-05 10:59:59,15,4.6,1006.0,WNW,300,6.6,18.5,49.8,0.0,,,0.0,547,2.1,n/a,2026-09-04T22:59:59Z
2026-09-05 11:04:58,15.4,4.7,1005.8,WNW,297,10.2,19.3,48.9,0.0,,,0.0,527,2.1,n/a,2026-09-04T23:04:58Z
2026-09-05 11:09:58,15.7,4.7,1005.8,WNW,301,8.1,18.5,48.1,0.0,,,0.0,422,1.8,n/a,2026-09-04T23:09:58Z
2026-09-05 11:14:57,15.7,4.4,1005.6,NW,311,9.6,19.3,47,0.0,,,0.0,364,1.7,n/a,2026-09-04T23:14:57Z
2026-09-05 11:19:57,15.6,4.5,1005.6,NW,314,9.1,19.3,47.5,0.0,,,0.0,330,1.6,n/a,2026-09-04T23:19:57Z
2026-09-05 11:24:57,15.4,4.3,1005.6,NW,312,8.9,18.5,47.5,0.0,,,0.0,325,1.6,n/a,2026-09-04T23:24:57Z
2026-09-05 11:29:55,15.4,4.6,1005.5,North,3,5.6,13,48.7,0.0,,,0.0,341,1.7,n/a,2026-09-04T23:29:55Z
2026-09-05 11:34:54,15.4,5.1,1005.5,North,359,3.1,8,50.1,0.0,,,0.0,308,1.6,n/a,2026-09-04T23:34:54Z
2026-09-05 11:39:58,15.5,5.6,1005.4,North,9,4.6,14.8,51.6,0.0,,,0.0,294,1.6,n/a,2026-09-04T23:39:58Z
2026-09-05 11:44:59,15.5,5.9,1005.2,ENE,61,5.1,14.5,53.1,0.0,,,0.0,329,1.7,n/a,2026-09-04T23:44:59Z
2026-09-05 11:49:58,15.3,6.5,1005.2,NE,47,3.8,14.8,55.9,0.0,,,0.0,496,2.1,n/a,2026-09-04T23:49:58Z
2026-09-05 11:54:57,15.2,6.5,1005.2,NE,36,5,14.5,56.1,0.0,,,0.0,524,2.2,n/a,2026-09-04T23:54:57Z
2026-09-05 11:59:55,15.3,6.3,1005.2,ENE,66,7.6,18.5,55,0.0,,,0.0,515,2.2,n/a,2026-09-04T23:59:55Z
2026-09-05 12:04:55,15.4,6.1,1005.1,East,81,8.8,18.5,54.1,0.0,,,0.0,563,2.5,n/a,2026-09-05T00:04:55Z
2026-09-05 12:09:58,15.6,6.3,1005.1,ENE,75,7.5,14.8,54,0.0,,,0.0,612,2.6,n/a,2026-09-05T00:09:58Z
2026-09-05 12:14:58,15.9,6.5,1005.1,NNE,28,5.6,18.5,53.5,0.0,,,0.0,649,2.7,n/a,2026-09-05T00:14:58Z
2026-09-05 12:19:58,16.2,6.5,1005.0,NNE,18,5.7,16.7,52.5,0.0,,,0.0,694,2.8,n/a,2026-09-05T00:19:58Z
2026-09-05 12:24:57,16.5,6.4,1004.9,North,6,8.1,16.7,51,0.0,,,0.0,731,3,n/a,2026-09-05T00:24:57Z
2026-09-05 12:29:56,16.8,6.5,1004.8,North,11,7.8,18.5,51,0.0,,,0.0,742,3,n/a,2026-09-05T00:29:56Z
2026-09-05 12:34:55,16.9,6.6,1004.7,NNE,29,9,17.7,50.8,0.0,,,0.0,780,3.1,n/a,2026-09-05T00:34:55Z
2026-09-05 12:39:56,16.9,6.5,1004.7,North,356,9.8,19.3,50.4,0.0,,,0.0,766,3,n/a,2026-09-05T00:39:56Z
2026-09-05 12:44:56,16.9,6.7,1004.6,North,3,9.2,20.9,51,0.0,,,0.0,798,3.1,n/a,2026-09-05T00:44:56Z
2026-09-05 12:49:56,16.9,6.8,1004.4,NE,34,7.6,18.5,51.4,0.0,,,0.0,635,2.7,n/a,2026-09-05T00:49:56Z
2026-09-05 12:54:55,16.9,6.9,1004.3,NNE,23,7.6,17.7,51.8,0.0,,,0.0,603,2.1,n/a,2026-09-05T00:54:55Z
2026-09-05 12:59:55,16.8,6.6,1004.4,NE,37,7.8,18.5,51,0.0,,,0.0,438,2.1,n/a,2026-09-05T00:59:55Z
2026-09-05 13:04:54,16.7,6.6,1004.3,North,2,9.7,18.5,51.2,0.0,,,0.0,468,2.2,n/a,2026-09-05T01:04:54Z
2026-09-05 13:09:57,16.6,6.9,1004.2,North,9,7.5,16.7,52.7,0.0,,,0.0,478,2.2,n/a,2026-09-05T01:09:57Z
2026-09-05 13:14:58,16.7,7.1,1004.1,ENE,66,6.1,14.8,53,0.0,,,0.0,462,2.1,n/a,2026-09-05T01:14:58Z
2026-09-05 13:18:25,16.7,6.9,1004.0,NE,40,6.8,14.8,52.3,0.0,,,0.0,452,2.2,n/a,2026-09-05T01:18:25Z
2026-09-05 13:59:54,17.4,7.2,1002.6,NNW,341,11.4,18.5,51,0.0,,,0.0,424,1.9,n/a,2026-09-05T01:59:54Z
2026-09-05 14:04:59,17.5,7.2,1002.6,NW,308,9,18.5,51.1,0.0,,,0.0,466,1.9,n/a,2026-09-05T02:04:59Z
2026-09-05 14:09:54,17.5,7.1,1002.6,NW,323,10.2,22.5,50.6,0.0,,,0.0,492,1.9,n/a,2026-09-05T02:09:54Z
2026-09-05 14:14:55,17.5,7.2,1002.3,NW,308,9.2,20.9,51,0.0,,,0.0,475,1.9,n/a,2026-09-05T02:14:55Z
2026-09-05 14:19:55,17.6,7.2,1002.4,NW,315,8.4,19.3,50.6,0.0,,,0.0,425,1.8,n/a,2026-09-05T02:19:55Z
2026-09-05 14:24:55,17.6,7,1002.4,NW,317,8.6,16.7,50.1,0.0,,,0.0,513,1.9,n/a,2026-09-05T02:24:55Z
2026-09-05 14:29:54,17.6,7.1,1002.4,NW,305,7.4,14.8,50.2,0.0,,,0.0,513,1.9,n/a,2026-09-05T02:29:54Z
2026-09-05 14:34:54,17.8,7,1002.4,NW,312,4.4,9.7,49.1,0.0,,,0.0,396,1.6,n/a,2026-09-05T02:34:54Z
2026-09-05 14:39:57,17.9,6.8,1002.4,NW,326,4.4,13,48.2,0.0,,,0.0,350,1.5,n/a,2026-09-05T02:39:57Z
2026-09-05 14:44:56,18,7.1,1002.4,NNW,333,4.4,9.7,48.8,0.0,,,0.0,399,1.5,n/a,2026-09-05T02:44:56Z
2026-09-05 14:49:56,18.2,6.8,1002.4,NW,310,5.9,13,47.3,0.0,,,0.0,475,1.5,n/a,2026-09-05T02:49:56Z
2026-09-05 14:54:57,18.4,7,1002.3,North,3,4.4,11.3,47.4,0.0,,,0.0,446,1.5,n/a,2026-09-05T02:54:57Z
2026-09-05 14:59:55,18.6,6.8,1002.1,NNW,342,3.9,12.9,46.3,0.0,,,0.0,362,1.3,n/a,2026-09-05T02:59:55Z
2026-09-05 15:04:55,18.6,6.6,1002.1,North,0,5.6,13,45.3,0.0,,,0.0,299,1.2,n/a,2026-09-05T03:04:55Z
2026-09-05 15:09:56,18.5,6.2,1002.0,North,359,5.7,13,44.5,0.0,,,0.0,339,1.2,n/a,2026-09-05T03:09:56Z
2026-09-05 15:14:56,18.5,6.8,1002.0,WNW,290,3.1,8,46.3,0.0,,,0.0,513,1.3,n/a,2026-09-05T03:14:56Z
2026-09-05 15:19:55,18.9,6.8,1002.0,West,279,1.7,5.6,45.4,0.0,,,0.0,510,1.3,n/a,2026-09-05T03:19:55Z
2026-09-05 15:24:54,19.4,6.9,1001.9,WNW,282,4.6,14.8,44.2,0.0,,,0.0,543,1.2,n/a,2026-09-05T03:24:54Z
2026-09-05 15:29:59,19.7,6.4,1001.8,WNW,282,4.4,13,42.1,0.0,,,0.0,490,1.2,n/a,2026-09-05T03:29:59Z
2026-09-05 15:34:54,19.6,6.4,1001.8,West,274,3.8,11.3,42.1,0.0,,,0.0,323,1,n/a,2026-09-05T03:34:54Z
2026-09-05 15:39:56,19.5,6.3,1001.8,West,280,4.4,11.3,42.2,0.0,,,0.0,258,0.9,n/a,2026-09-05T03:39:56Z
2026-09-05 15:44:55,19.2,5.7,1001.8,West,281,5.8,12.9,41.3,0.0,,,0.0,243,0.8,n/a,2026-09-05T03:44:55Z
2026-09-05 15:49:54,18.9,5.6,1001.8,West,276,4.6,13,41.6,0.0,,,0.0,272,0.7,n/a,2026-09-05T03:49:54Z
2026-09-05 15:54:54,18.7,5.4,1001.6,WNW,283,9,16.7,41.4,0.0,,,0.0,394,0.7,n/a,2026-09-05T03:54:54Z
2026-09-05 15:59:59,18.7,5.3,1001.6,West,275,8.1,14.8,41.2,0.0,,,0.0,425,0.7,n/a,2026-09-05T03:59:59Z
2026-09-05 16:04:59,19,5.2,1001.7,West,269,9.1,20.9,40.5,0.0,,,0.0,383,0.7,n/a,2026-09-05T04:04:59Z
2026-09-05 16:09:55,19.1,5.4,1001.5,West,277,10.7,20.4,40.7,0.0,,,0.0,341,0.6,n/a,2026-09-05T04:09:55Z
2026-09-05 16:14:55,19,5.4,1001.4,West,280,8.4,16.7,40.9,0.0,,,0.0,336,0.6,n/a,2026-09-05T04:14:55Z
2026-09-05 16:19:55,19.1,5.7,1001.4,West,273,9.7,25.9,41.4,0.0,,,0.0,320,0.6,n/a,2026-09-05T04:19:55Z
2026-09-05 16:24:55,19.1,5.4,1001.4,West,273,8,18.5,40.7,0.0,,,0.0,306,0.5,n/a,2026-09-05T04:24:55Z
2026-09-05 16:29:59,19,5.3,1001.4,West,275,7.8,16.7,40.7,0.0,,,0.0,267,0.5,n/a,2026-09-05T04:29:59Z
2026-09-05 16:34:58,19,5.4,1001.5,West,278,7.5,18.5,41,0.0,,,0.0,257,0,n/a,2026-09-05T04:34:58Z
2026-09-05 16:39:54,19,5.5,1001.6,West,279,9.8,18.5,41,0.0,,,0.0,246,0,n/a,2026-09-05T04:39:54Z
2026-09-05 16:44:55,18.7,5.3,1001.5,West,279,10.9,20.9,41.2,0.0,,,0.0,232,0,n/a,2026-09-05T04:44:55Z
2026-09-05 16:49:54,18.5,5.3,1001.4,West,273,9.9,19.3,42.1,0.0,,,0.0,220,0,n/a,2026-09-05T04:49:54Z
2026-09-05 16:54:55,18.3,5.5,1001.4,West,277,6.5,13,43,0.0,,,0.0,202,0,n/a,2026-09-05T04:54:55Z
2026-09-05 16:59:59,18.3,5.4,1001.4,West,274,7.5,16.7,42.6,0.0,,,0.0,200,0,n/a,2026-09-05T04:59:59Z
2026-09-05 17:04:59,18.3,5.4,1001.4,West,279,7.7,16.7,42.9,0.0,,,0.0,188,0,n/a,2026-09-05T05:04:59Z
2026-09-05 17:09:54,18.2,5.4,1001.7,West,275,9,19.3,43,0.0,,,0.0,162,0,n/a,2026-09-05T05:09:54Z
2026-09-05 17:14:56,18.1,5.4,1001.8,West,281,8.8,20.9,43.3,0.0,,,0.0,148,0,n/a,2026-09-05T05:14:56Z
2026-09-05 17:19:56,17.8,5.2,1002.0,West,274,8.6,18.5,43.7,0.0,,,0.0,114,0,n/a,2026-09-05T05:19:56Z
2026-09-05 17:24:56,17.6,5.7,1002.0,WNW,284,3.5,9.7,45.6,0.0,,,0.0,104,0,n/a,2026-09-05T05:24:56Z
2026-09-05 17:29:57,17.5,5.8,1002.0,WNW,293,5.7,19.3,46,0.0,,,0.0,86,0,n/a,2026-09-05T05:29:57Z
2026-09-05 17:34:56,17.2,5.6,1002.0,WNW,296,6.3,14.8,46.4,0.0,,,0.0,35,0,n/a,2026-09-05T05:34:56Z
2026-09-05 17:39:59,16.7,5.7,1001.9,NW,316,4.9,11.3,48.2,0.0,,,0.0,25,0,n/a,2026-09-05T05:39:59Z
2026-09-05 17:44:59,16.2,5.5,1001.9,NW,305,6.8,13,49,0.0,,,0.0,19,0,n/a,2026-09-05T05:44:59Z
2026-09-05 17:49:54,16,5.3,1001.9,NW,304,5.6,13,49,0.0,,,0.0,16,0,n/a,2026-09-05T05:49:54Z
2026-09-05 17:54:54,15.8,5.2,1002.0,WNW,294,4.8,9.7,49.4,0.0,,,0.0,12,0,n/a,2026-09-05T05:54:54Z
2026-09-05 17:59:59,15.7,5.2,1002.2,WNW,283,5.5,13,49.6,0.0,,,0.0,9,0,n/a,2026-09-05T05:59:59Z
2026-09-05 18:04:54,15.6,5.2,1002.2,West,276,5.4,13,50,0.0,,,0.0,5,0,n/a,2026-09-05T06:04:54Z
2026-09-05 18:09:54,15.5,5.1,1002.2,West,281,4.4,9.7,50.2,0.0,,,0.0,0,0,n/a,2026-09-05T06:09:54Z
2026-09-05 18:14:55,15.3,5.2,1002.2,West,279,4.7,11.3,51,0.0,,,0.0,0,0,n/a,2026-09-05T06:14:55Z
2026-09-05 18:19:55,15.1,5.1,1002.2,West,278,4.5,9.7,51,0.0,,,0.0,0,0,n/a,2026-09-05T06:19:55Z
2026-09-05 18:24:55,15.1,5,1002.2,West,275,6.7,18.5,51,0.0,,,0.0,0,0,n/a,2026-09-05T06:24:55Z
2026-09-05 18:29:55,15,5,1002.2,West,277,6,14.8,51,0.0,,,0.0,0,0,n/a,2026-09-05T06:29:55Z
2026-09-05 18:34:56,15.1,4.8,1002.2,West,278,4.8,9.7,50.4,0.0,,,0.0,0,0,n/a,2026-09-05T06:34:56Z
2026-09-05 18:39:54,15,5,1002.3,WNW,284,4,11.3,50.9,0.0,,,0.0,0,0,n/a,2026-09-05T06:39:54Z
2026-09-05 18:44:55,14.9,4.9,1002.3,WNW,283,2.5,8,51,0.0,,,0.0,0,0,n/a,2026-09-05T06:44:55Z
2026-09-05 18:49:54,14.8,5,1002.3,WNW,296,2.5,6.4,51.8,0.0,,,0.0,0,0,n/a,2026-09-05T06:49:54Z
2026-09-05 18:54:54,14.7,4.8,1002.4,NW,304,3.9,9.7,51.7,0.0,,,0.0,0,0,n/a,2026-09-05T06:54:54Z
2026-09-05 18:59:53,14.7,4.6,1002.5,WNW,289,6.4,14.8,51,0.0,,,0.0,0,0,n/a,2026-09-05T06:59:53Z
2026-09-05 19:04:54,14.7,4.7,1002.6,WNW,297,3.3,13,51,0.0,,,0.0,0,0,n/a,2026-09-05T07:04:54Z
2026-09-05 19:09:56,14.8,4.7,1002.7,West,281,3.2,11.3,51,0.0,,,0.0,0,0,n/a,2026-09-05T07:09:56Z
2026-09-05 19:14:58,14.7,4.7,1002.7,NW,310,4.2,9.7,51,0.0,,,0.0,0,0,n/a,2026-09-05T07:14:58Z
2026-09-05 19:19:59,14.6,4.7,1002.7,NW,316,4.6,11.3,51.4,0.0,,,0.0,0,0,n/a,2026-09-05T07:19:59Z
2026-09-05 19:24:54,14.5,4.9,1002.7,NNW,344,2.1,5.6,52.4,0.0,,,0.0,0,0,n/a,2026-09-05T07:24:54Z
2026-09-05 19:29:59,14.4,4.8,1002.8,NW,304,3.1,6.4,52.7,0.0,,,0.0,0,0,n/a,2026-09-05T07:29:59Z
2026-09-05 19:34:59,14.2,4.8,1002.8,NW,310,2.6,5.6,53,0.0,,,0.0,0,0,n/a,2026-09-05T07:34:59Z
2026-09-05 19:39:54,14.1,4.5,1002.8,NW,311,2.5,6.4,52.6,0.0,,,0.0,0,0,n/a,2026-09-05T07:39:54Z
2026-09-05 19:44:54,14,4.6,1002.7,WNW,293,3.6,9.7,53.4,0.0,,,0.0,0,0,n/a,2026-09-05T07:44:54Z
2026-09-05 19:49:58,13.7,5,1002.5,WNW,293,4.8,9.7,55.6,0.0,,,0.0,0,0,n/a,2026-09-05T07:49:58Z
2026-09-05 19:54:58,13.3,5.1,1002.7,WNW,285,5.8,11.3,57.5,0.0,,,0.0,0,0,n/a,2026-09-05T07:54:58Z
2026-09-05 19:59:56,13.1,5,1002.7,WNW,283,7.5,14.8,57.8,0.0,,,0.0,0,0,n/a,2026-09-05T07:59:56Z
2026-09-05 20:04:58,13.5,4.9,1002.6,West,278,10,22.5,56.3,0.0,,,0.0,0,0,n/a,2026-09-05T08:04:58Z
2026-09-05 20:09:55,14,4.8,1002.5,West,281,7.3,16.7,53.9,0.0,,,0.0,0,0,n/a,2026-09-05T08:09:55Z
2026-09-05 20:14:55,14.4,4.6,1002.8,WNW,282,7.7,20.9,51.8,0.0,,,0.0,0,0,n/a,2026-09-05T08:14:55Z
2026-09-05 20:19:57,14.8,4.7,1002.8,WNW,283,4.3,11.3,51,0.0,,,0.0,0,0,n/a,2026-09-05T08:19:57Z
2026-09-05 20:24:56,14.7,4.9,1002.7,WNW,296,3.6,8,51.9,0.0,,,0.0,0,0,n/a,2026-09-05T08:24:56Z
2026-09-05 20:29:57,14.5,5,1002.8,West,273,1.6,5.6,52.9,0.0,,,0.0,0,0,n/a,2026-09-05T08:29:57Z
2026-09-05 20:34:57,14.2,5.1,1002.8,WNW,283,1.7,6.4,54,0.0,,,0.0,0,0,n/a,2026-09-05T08:34:57Z